createdAt,value
2023-02-28T00:02:08.671Z,5.10
2023-02-28T00:05:18.071Z,5.00
2023-02-28T00:08:21.782Z,4.90
2023-02-28T00:11:25.586Z,4.80
2023-02-28T00:14:32.933Z,4.80
2023-02-28T00:17:36.803Z,4.80
2023-02-28T00:20:41.843Z,4.70
2023-02-28T00:23:46.150Z,4.70
2023-02-28T00:26:49.909Z,4.60
2023-02-28T00:29:54.947Z,4.50
2023-02-28T00:32:58.685Z,4.50
2023-02-28T00:36:13.408Z,6.70
2023-02-28T00:39:17.966Z,7.10
2023-02-28T00:42:21.964Z,4.30
2023-02-28T00:45:25.182Z,4.30
2023-02-28T00:48:29.425Z,4.30
2023-02-28T00:51:35.071Z,4.90
2023-02-28T00:54:38.840Z,4.10
2023-02-28T00:57:43.482Z,4.10
2023-02-28T01:00:50.844Z,4.10
2023-02-28T01:03:54.479Z,3.90
2023-02-28T01:06:59.827Z,4.00
2023-02-28T01:10:03.715Z,4.10
2023-02-28T01:13:07.826Z,4.20
2023-02-28T01:16:11.381Z,3.30
2023-02-28T01:19:16.179Z,4.00
2023-02-28T01:22:21.105Z,4.00
2023-02-28T01:37:45.401Z,5.80
2023-02-28T01:40:49.605Z,4.10
2023-02-28T01:43:59.108Z,4.50
2023-02-28T01:47:03.882Z,4.00
2023-02-28T01:50:17.102Z,4.10
2023-02-28T01:53:41.113Z,2.20
2023-02-28T01:56:56.336Z,5.70
2023-02-28T02:00:04.383Z,4.20
2023-02-28T02:03:13.003Z,7.40
2023-02-28T02:06:17.103Z,4.20
2023-02-28T02:09:39.952Z,4.20
2023-02-28T02:13:21.549Z,4.30
2023-02-28T02:16:40.156Z,2.90
2023-02-28T02:20:37.572Z,4.40
2023-02-28T02:24:37.182Z,5.80
2023-02-28T02:28:39.773Z,4.40
2023-02-28T02:32:31.184Z,4.30
2023-02-28T02:35:51.335Z,6.50
2023-02-28T02:39:02.572Z,4.20
2023-02-28T02:42:17.850Z,4.20
2023-02-28T02:45:28.322Z,4.10
2023-02-28T02:48:37.431Z,4.10
2023-02-28T02:51:44.471Z,1.90
2023-02-28T02:54:51.607Z,4.00
2023-02-28T02:58:01.664Z,2.60
2023-02-28T03:01:07.458Z,1.70
2023-02-28T03:04:24.785Z,3.90
2023-02-28T03:07:30.085Z,3.80
2023-02-28T03:10:44.427Z,3.80
2023-02-28T03:14:50.700Z,3.80
2023-02-28T03:18:10.287Z,3.80
2023-02-28T03:21:26.750Z,3.70
2023-02-28T03:24:49.578Z,3.30
2023-02-28T03:28:06.185Z,3.60
2023-02-28T03:31:21.383Z,3.60
2023-02-28T03:34:32.462Z,3.50
2023-02-28T03:37:42.069Z,3.50
2023-02-28T03:40:55.193Z,3.50
2023-02-28T03:44:07.190Z,4.50
2023-02-28T03:47:14.915Z,3.40
2023-02-28T03:50:26.097Z,3.00
2023-02-28T03:53:35.235Z,1.60
2023-02-28T03:56:47.737Z,3.20
2023-02-28T03:59:58.733Z,3.20
2023-02-28T04:03:02.609Z,3.10
2023-02-28T04:06:10.451Z,3.10
2023-02-28T04:09:17.201Z,3.00
2023-02-28T04:12:24.311Z,2.10
2023-02-28T04:15:29.202Z,2.90
2023-02-28T04:18:32.956Z,1.00
2023-02-28T04:21:40.769Z,2.90
2023-02-28T04:24:45.584Z,2.80
2023-02-28T04:27:51.512Z,2.20
2023-02-28T04:30:59.298Z,0.80
2023-02-28T04:34:02.758Z,4.30
2023-02-28T04:37:14.234Z,2.80
2023-02-28T04:40:19.564Z,2.80
2023-02-28T04:43:25.784Z,0.80
2023-02-28T04:46:29.428Z,2.40
2023-02-28T04:49:33.570Z,2.80
2023-02-28T04:52:37.367Z,3.90
2023-02-28T04:55:42.001Z,2.70
2023-02-28T04:58:47.738Z,2.70
2023-02-28T05:01:52.731Z,2.70
2023-02-28T05:04:57.620Z,2.60
2023-02-28T05:08:01.226Z,1.00
2023-02-28T05:11:06.332Z,2.60
2023-02-28T05:14:15.641Z,2.60
2023-02-28T05:17:19.483Z,2.50
2023-02-28T05:20:23.173Z,1.60
2023-02-28T05:23:26.812Z,2.10
2023-02-28T05:26:31.662Z,2.60
2023-02-28T05:29:44.170Z,2.60
2023-02-28T05:32:53.614Z,2.60
2023-02-28T05:35:59.878Z,2.60
2023-02-28T05:39:04.574Z,2.70
2023-02-28T05:42:08.626Z,1.40
2023-02-28T05:45:15.817Z,2.70
2023-02-28T05:48:19.589Z,2.40
2023-02-28T05:51:23.795Z,3.40
2023-02-28T05:54:27.826Z,2.70
2023-02-28T05:57:31.314Z,2.70
2023-02-28T06:00:37.168Z,2.60
2023-02-28T06:03:42.146Z,1.10
2023-02-28T06:06:45.836Z,2.60
2023-02-28T06:09:49.357Z,2.60
2023-02-28T06:12:54.457Z,2.60
2023-02-28T06:16:03.105Z,4.10
2023-02-28T06:19:07.813Z,2.60
2023-02-28T06:22:12.326Z,2.60
2023-02-28T06:25:16.645Z,2.50
2023-02-28T06:28:20.474Z,2.50
2023-02-28T06:31:27.158Z,2.60
2023-02-28T06:34:31.159Z,2.60
2023-02-28T06:37:35.496Z,2.60
2023-02-28T06:40:39.185Z,2.10
2023-02-28T06:43:45.367Z,3.80
2023-02-28T06:46:51.788Z,2.70
2023-02-28T06:49:55.549Z,3.90
2023-02-28T06:53:06.717Z,2.70
2023-02-28T06:56:13.593Z,3.50
2023-02-28T06:59:17.432Z,2.80
2023-02-28T07:02:22.672Z,2.80
2023-02-28T07:05:26.265Z,5.10
2023-02-28T07:08:32.646Z,4.40
2023-02-28T07:11:36.978Z,4.50
2023-02-28T07:14:40.860Z,3.10
2023-02-28T07:17:46.192Z,3.20
2023-02-28T07:20:49.786Z,3.30
2023-02-28T07:23:53.683Z,3.40
2023-02-28T07:26:57.942Z,3.50
2023-02-28T07:30:02.771Z,3.60
2023-02-28T07:33:07.736Z,3.70
2023-02-28T07:36:16.338Z,3.90
2023-02-28T07:39:20.836Z,2.20
2023-02-28T07:42:23.928Z,4.20
2023-02-28T07:45:27.633Z,4.30
2023-02-28T07:48:32.669Z,4.50
2023-02-28T07:51:36.493Z,4.60
2023-02-28T07:54:41.219Z,6.00
2023-02-28T07:57:45.898Z,4.90
2023-02-28T08:00:49.812Z,6.40
2023-02-28T08:03:56.045Z,5.20
2023-02-28T08:06:59.915Z,5.40
2023-02-28T08:10:06.629Z,5.60
2023-02-28T08:13:11.038Z,5.80
2023-02-28T08:16:22.924Z,6.00
2023-02-28T08:19:29.085Z,6.20
2023-02-28T08:22:32.582Z,6.40
2023-02-28T08:25:37.219Z,6.60
2023-02-28T08:28:41.433Z,6.80
2023-02-28T08:31:44.938Z,7.00
2023-02-28T08:34:54.692Z,7.20
2023-02-28T08:37:59.441Z,7.10
2023-02-28T08:41:06.941Z,6.30
2023-02-28T08:44:11.455Z,7.60
2023-02-28T08:47:14.837Z,7.70
2023-02-28T08:50:20.583Z,7.80
2023-02-28T08:53:24.116Z,7.90
2023-02-28T08:56:28.226Z,8.10
2023-02-28T08:59:32.245Z,8.60
2023-02-28T09:02:35.939Z,8.30
2023-02-28T09:05:40.960Z,8.40
2023-02-28T09:08:44.874Z,8.50
2023-02-28T09:11:48.286Z,7.80
2023-02-28T09:14:55.324Z,8.80
2023-02-28T09:17:59.980Z,8.90
2023-02-28T09:21:07.939Z,9.70
2023-02-28T09:24:12.915Z,9.20
2023-02-28T09:27:21.976Z,9.70
2023-02-28T09:30:29.301Z,9.50
2023-02-28T09:33:33.089Z,9.60
2023-02-28T09:36:45.167Z,9.70
2023-02-28T09:39:49.601Z,9.90
2023-02-28T09:42:59.349Z,9.90
2023-02-28T09:46:14.912Z,10.10
2023-02-28T09:49:25.239Z,10.20
2023-02-28T09:52:34.832Z,10.30
2023-02-28T09:55:48.969Z,10.40
2023-02-28T09:58:57.808Z,10.50
2023-02-28T10:02:15.213Z,10.50
2023-02-28T10:05:22.764Z,10.60
2023-02-28T10:08:34.656Z,10.70
2023-02-28T10:11:41.209Z,11.00
2023-02-28T10:15:05.370Z,10.50
2023-02-28T10:18:23.312Z,12.70
2023-02-28T10:21:36.051Z,10.90
2023-02-28T10:24:46.293Z,11.80
2023-02-28T10:27:51.423Z,11.00
2023-02-28T10:30:57.158Z,11.10
2023-02-28T10:34:02.533Z,11.10
2023-02-28T10:37:29.789Z,11.20
2023-02-28T10:40:38.002Z,11.30
2023-02-28T10:43:46.141Z,11.40
2023-02-28T10:46:51.069Z,11.50
2023-02-28T10:49:54.970Z,11.60
2023-02-28T10:53:28.073Z,11.70
2023-02-28T10:56:37.167Z,11.40
2023-02-28T10:59:41.107Z,11.90
2023-02-28T11:02:45.919Z,12.00
2023-02-28T11:05:57.035Z,12.00
2023-02-28T11:09:05.765Z,12.40
2023-02-28T11:12:27.466Z,12.10
2023-02-28T11:15:34.273Z,13.40
2023-02-28T11:18:45.305Z,10.80
2023-02-28T11:21:58.414Z,12.20
2023-02-28T11:25:09.246Z,12.20
2023-02-28T11:28:32.227Z,12.30
2023-02-28T11:31:37.056Z,12.20
2023-02-28T11:34:42.969Z,12.00
2023-02-28T11:37:47.486Z,13.30
2023-02-28T11:41:09.832Z,10.60
2023-02-28T11:44:35.991Z,12.40
2023-02-28T11:47:49.710Z,12.40
2023-02-28T11:51:09.089Z,12.40
2023-02-28T11:54:38.109Z,12.40
2023-02-28T11:58:08.020Z,12.50
2023-02-28T12:01:35.916Z,12.50
2023-02-28T12:04:57.814Z,12.50
2023-02-28T12:08:23.737Z,13.30
2023-02-28T12:11:54.090Z,12.50
2023-02-28T12:15:42.947Z,11.70
2023-02-28T12:19:32.105Z,12.60
2023-02-28T12:22:45.264Z,12.60
2023-02-28T12:26:05.225Z,12.60
2023-02-28T12:29:20.822Z,12.60
2023-02-28T12:32:33.340Z,12.70
2023-02-28T12:35:49.824Z,12.70
2023-02-28T12:39:01.211Z,12.70
2023-02-28T12:42:13.941Z,12.60
2023-02-28T12:45:23.340Z,12.60
2023-02-28T12:48:39.794Z,12.40
2023-02-28T12:51:46.887Z,14.00
2023-02-28T12:54:59.481Z,12.20
2023-02-28T12:58:17.818Z,12.10
2023-02-28T13:02:03.237Z,12.10
2023-02-28T13:05:48.930Z,12.00
2023-02-28T13:09:13.445Z,12.10
2023-02-28T13:12:26.541Z,12.10
2023-02-28T13:15:36.493Z,12.10
2023-02-28T13:19:13.463Z,12.10
2023-02-28T13:22:38.906Z,12.10
2023-02-28T13:25:56.112Z,12.10
2023-02-28T13:29:02.969Z,12.10
2023-02-28T13:32:45.287Z,12.10
2023-02-28T13:35:49.970Z,12.10
2023-02-28T13:38:56.509Z,12.10
2023-02-28T13:42:38.717Z,12.10
2023-02-28T13:46:16.034Z,12.10
2023-02-28T13:49:29.349Z,12.10
2023-02-28T13:52:48.515Z,10.20
2023-02-28T13:56:05.720Z,12.10
2023-02-28T13:59:25.603Z,12.10
2023-02-28T14:03:01.813Z,12.60
2023-02-28T14:06:29.280Z,12.10
2023-02-28T14:09:38.790Z,13.60
2023-02-28T14:13:03.171Z,12.00
2023-02-28T14:16:11.090Z,12.00
2023-02-28T14:19:24.309Z,11.90
2023-02-28T14:22:55.936Z,11.20
2023-02-28T14:26:15.691Z,11.90
2023-02-28T14:30:08.080Z,11.90
2023-02-28T14:33:28.582Z,11.90
2023-02-28T14:36:42.743Z,10.60
2023-02-28T14:39:48.199Z,11.90
2023-02-28T14:43:01.736Z,11.90
2023-02-28T14:46:09.252Z,11.80
2023-02-28T14:49:21.239Z,11.80
2023-02-28T14:52:31.199Z,11.80
2023-02-28T14:55:38.897Z,11.80
2023-02-28T14:58:42.402Z,11.80
2023-02-28T15:01:46.749Z,11.80
2023-02-28T15:05:02.694Z,10.50
2023-02-28T15:08:16.635Z,12.60
2023-02-28T15:11:23.718Z,11.70
2023-02-28T15:14:31.757Z,12.30
2023-02-28T15:17:37.079Z,11.70
2023-02-28T15:20:44.988Z,10.70
2023-02-28T15:23:55.850Z,11.60
2023-02-28T15:27:07.216Z,11.50
2023-02-28T15:30:25.331Z,11.50
2023-02-28T15:33:32.972Z,11.50
2023-02-28T15:36:44.208Z,11.40
2023-02-28T15:39:53.814Z,11.40
2023-02-28T15:43:11.154Z,11.40
2023-02-28T15:46:18.637Z,11.30
2023-02-28T15:49:25.009Z,11.20
2023-02-28T15:52:41.897Z,11.20
2023-02-28T15:55:59.563Z,11.10
2023-02-28T15:59:13.708Z,11.10
2023-02-28T16:02:23.510Z,11.00
2023-02-28T16:05:32.725Z,11.00
2023-02-28T16:08:37.611Z,10.90
2023-02-28T16:11:49.258Z,10.80
2023-02-28T16:14:58.240Z,9.80
2023-02-28T16:18:33.356Z,10.00
2023-02-28T16:21:40.364Z,9.20
2023-02-28T16:24:46.177Z,10.50
2023-02-28T16:27:54.785Z,9.90
2023-02-28T16:31:00.550Z,10.30
2023-02-28T16:34:14.678Z,10.30
2023-02-28T16:37:20.923Z,10.40
2023-02-28T16:40:32.193Z,10.20
2023-02-28T16:43:38.687Z,10.00
2023-02-28T16:46:44.803Z,9.90
2023-02-28T16:49:50.043Z,9.90
2023-02-28T16:52:55.779Z,9.50
2023-02-28T16:55:59.538Z,9.60
2023-02-28T16:59:13.692Z,9.60
2023-02-28T17:02:21.899Z,10.40
2023-02-28T17:05:28.084Z,9.50
2023-02-28T17:08:48.474Z,9.40
2023-02-28T17:11:54.089Z,9.30
2023-02-28T17:14:59.842Z,7.50
2023-02-28T17:18:05.708Z,7.90
2023-02-28T17:21:17.404Z,9.10
2023-02-28T17:24:30.194Z,9.10
2023-02-28T17:27:36.995Z,8.90
2023-02-28T17:30:48.348Z,8.90
2023-02-28T17:33:58.416Z,8.90
2023-02-28T17:37:03.860Z,8.80
2023-02-28T17:40:16.540Z,8.70
2023-02-28T17:43:21.224Z,8.00
2023-02-28T17:46:29.952Z,8.20
2023-02-28T17:49:34.290Z,8.50
2023-02-28T17:52:38.167Z,8.50
2023-02-28T17:55:42.224Z,8.40
2023-02-28T17:58:48.570Z,8.30
2023-02-28T18:01:53.838Z,8.20
2023-02-28T18:04:59.074Z,8.10
2023-02-28T18:08:03.081Z,8.00
2023-02-28T18:11:07.240Z,7.90
2023-02-28T18:14:15.405Z,7.90
2023-02-28T18:17:21.649Z,7.80
2023-02-28T18:20:25.042Z,7.70
2023-02-28T18:23:32.388Z,7.60
2023-02-28T18:26:38.122Z,7.50
2023-02-28T18:29:42.357Z,9.30
2023-02-28T18:32:47.544Z,9.40
2023-02-28T18:35:58.369Z,7.30
2023-02-28T18:39:01.876Z,7.70
2023-02-28T18:42:06.051Z,7.20
2023-02-28T18:45:12.862Z,7.10
2023-02-28T18:48:19.735Z,7.00
2023-02-28T18:51:27.113Z,7.90
2023-02-28T18:54:58.008Z,6.90
2023-02-28T18:58:06.574Z,6.80
2023-02-28T19:01:19.908Z,6.60
2023-02-28T19:04:37.340Z,6.70
2023-02-28T19:07:41.434Z,6.60
2023-02-28T19:11:14.338Z,6.50
2023-02-28T19:14:34.679Z,6.50
2023-02-28T19:18:14.709Z,6.10
2023-02-28T19:21:32.655Z,6.40
2023-02-28T19:24:40.731Z,5.40
2023-02-28T19:27:44.390Z,6.30
2023-02-28T19:30:51.733Z,4.50
2023-02-28T19:33:59.060Z,6.30
2023-02-28T19:37:04.804Z,6.20
2023-02-28T19:40:14.829Z,6.20
2023-02-28T19:43:32.580Z,6.10
2023-02-28T19:46:41.011Z,6.00
2023-02-28T19:49:44.824Z,6.60
2023-02-28T19:53:00.447Z,6.00
2023-02-28T19:56:25.223Z,5.90
2023-02-28T19:59:39.487Z,5.90
2023-02-28T20:02:45.314Z,5.90
2023-02-28T20:06:02.444Z,5.80
2023-02-28T20:09:12.690Z,5.80
2023-02-28T20:12:24.001Z,5.70
2023-02-28T20:15:30.243Z,5.70
2023-02-28T20:18:34.154Z,5.70
2023-02-28T20:21:37.956Z,5.70
2023-02-28T20:24:43.204Z,5.80
2023-02-28T20:27:47.553Z,5.50
2023-02-28T20:30:59.781Z,4.70
2023-02-28T20:34:04.864Z,4.90
2023-02-28T20:37:09.001Z,5.40
2023-02-28T20:40:15.561Z,6.70
2023-02-28T20:43:20.890Z,5.30
2023-02-28T20:46:25.926Z,5.90
2023-02-28T20:49:29.633Z,5.20
2023-02-28T20:52:33.574Z,5.20
2023-02-28T20:55:41.058Z,5.20
2023-02-28T20:58:47.731Z,4.50
2023-02-28T21:01:52.688Z,3.20
2023-02-28T21:04:56.270Z,3.10
2023-02-28T21:08:00.730Z,5.90
2023-02-28T21:11:10.238Z,5.00
2023-02-28T21:14:17.541Z,3.50
2023-02-28T21:17:21.730Z,4.90
2023-02-28T21:20:32.032Z,4.90
2023-02-28T21:23:36.090Z,4.80
2023-02-28T21:26:42.676Z,4.80
2023-02-28T21:29:48.267Z,7.00
2023-02-28T21:32:51.758Z,3.00
2023-02-28T21:36:04.450Z,4.70
2023-02-28T21:39:14.686Z,2.90
2023-02-28T21:42:19.953Z,4.60
2023-02-28T21:45:25.104Z,4.60
2023-02-28T21:48:28.611Z,4.60
2023-02-28T21:51:33.567Z,4.60
2023-02-28T21:54:37.236Z,4.60
2023-02-28T21:57:44.420Z,4.60
2023-02-28T22:00:49.266Z,4.50
2023-02-28T22:03:54.602Z,4.50
2023-02-28T22:06:58.815Z,5.00
2023-02-28T22:10:02.614Z,4.90
2023-02-28T22:13:09.747Z,4.40
2023-02-28T22:16:16.747Z,6.50
2023-02-28T22:19:21.238Z,4.40
2023-02-28T22:22:26.443Z,4.30
2023-02-28T22:25:30.386Z,4.30
2023-02-28T22:28:36.116Z,4.30
2023-02-28T22:31:48.357Z,3.00
2023-02-28T22:34:54.169Z,4.20
2023-02-28T22:37:58.175Z,4.20
2023-02-28T22:41:01.614Z,3.70
2023-02-28T22:44:08.602Z,3.50
2023-02-28T22:47:12.598Z,5.20
2023-02-28T22:50:17.967Z,4.10
2023-02-28T22:53:21.973Z,4.10
2023-02-28T22:56:30.111Z,4.00
2023-02-28T22:59:36.930Z,4.00
2023-02-28T23:02:41.574Z,3.90
2023-02-28T23:05:45.869Z,5.50
2023-02-28T23:08:50.034Z,3.90
2023-02-28T23:11:54.153Z,3.90
2023-02-28T23:14:59.206Z,5.00
2023-02-28T23:18:02.967Z,3.80
2023-02-28T23:21:08.638Z,1.80
2023-02-28T23:24:21.582Z,3.80
2023-02-28T23:27:25.675Z,3.80
2023-02-28T23:30:30.775Z,5.90
2023-02-28T23:33:35.297Z,3.80
2023-02-28T23:36:40.071Z,3.80
2023-02-28T23:39:44.091Z,4.30
2023-02-28T23:42:47.963Z,5.70
2023-02-28T23:46:01.160Z,3.70
2023-02-28T23:49:07.466Z,3.70
2023-02-28T23:52:12.331Z,3.70
2023-02-28T23:55:16.619Z,3.70
2023-02-28T23:58:20.416Z,4.70
